Time;durP1;ratioP1;P1;durP2;ratioP2;P2;SDS_P1;SDS_P2;PMS_P1;PMS_P2;Temp;Humidity;BMP_temperature;BMP_pressure;BME280_temperature;BME280_humidity;BME280_pressure;Samples;Min_cycle;Max_cycle;Signal;HPM_P1;HPM_P2
2022/03/08 00:02:01;;;;;;;8.18;5.57;;;2.40;99.90;;;;;;5125624;27;20039;-81
2022/03/08 00:04:27;;;;;;;10.00;5.40;;;2.50;99.90;;;;;;5104639;28;20160;-80
2022/03/08 00:06:54;;;;;;;;;;;3.60;99.90;;;;;;5111890;27;20637;-80
2022/03/08 00:09:19;;;;;;;8.68;5.50;;;3.10;99.90;;;;;;5119349;27;19975;-80
2022/03/08 00:11:45;;;;;;;8.32;5.30;;;3.40;99.90;;;;;;5115065;27;20031;-79
2022/03/08 00:14:11;;;;;;;6.13;4.55;;;2.50;99.90;;;;;;5098782;28;20089;-79
2022/03/08 00:16:37;;;;;;;8.50;4.75;;;2.50;99.90;;;;;;5118728;27;20041;-81
2022/03/08 00:19:03;;;;;;;7.32;5.10;;;2.70;99.90;;;;;;5118558;27;21250;-81
2022/03/08 00:21:28;;;;;;;7.07;4.75;;;2.40;99.90;;;;;;5126547;27;20035;-80
2022/03/08 00:23:55;;;;;;;8.43;5.18;;;3.40;99.90;;;;;;5118584;27;20039;-80
2022/03/08 00:26:22;;;;;;;9.00;5.32;;;3.50;99.90;;;;;;5116409;27;20048;-80
2022/03/08 00:28:48;;;;;;;7.75;4.93;;;2.40;99.90;;;;;;5107824;27;20061;-80
2022/03/08 00:31:14;;;;;;;7.03;5.13;;;2.40;99.90;;;;;;5122147;27;20039;-80
2022/03/08 00:33:40;;;;;;;8.80;5.13;;;3.00;99.90;;;;;;5097796;27;20497;-80
2022/03/08 00:36:06;;;;;;;8.07;5.30;;;2.20;99.90;;;;;;5096669;28;20032;-80
2022/03/08 00:38:32;;;;;;;7.57;5.05;;;2.20;99.90;;;;;;5120685;27;20184;-80
2022/03/08 00:40:58;;;;;;;6.93;5.07;;;2.20;99.90;;;;;;5128597;27;20494;-80
2022/03/08 00:43:23;;;;;;;7.83;5.17;;;2.10;99.90;;;;;;5120889;27;20499;-80
2022/03/08 00:45:49;;;;;;;9.50;5.77;;;2.10;99.90;;;;;;5119435;27;20362;-80
2022/03/08 00:48:15;;;;;;;8.55;5.07;;;2.20;99.90;;;;;;5088883;28;20039;-80
2022/03/08 00:50:41;;;;;;;10.90;5.55;;;2.10;99.90;;;;;;5118353;28;20039;-79
2022/03/08 00:53:07;;;;;;;8.52;5.25;;;2.90;99.90;;;;;;5123312;28;20497;-80
2022/03/08 00:55:33;;;;;;;7.40;5.20;;;2.30;99.90;;;;;;5126367;28;20027;-81
2022/03/08 00:57:59;;;;;;;8.80;5.55;;;2.10;99.90;;;;;;5122828;28;20035;-81
2022/03/08 01:00:28;;;;;;;7.90;6.00;;;2.20;99.90;;;;;;5125178;28;20383;-81
2022/03/08 01:02:54;;;;;;;9.07;5.35;;;2.20;99.90;;;;;;5127829;28;20092;-80
2022/03/08 01:05:20;;;;;;;8.93;5.70;;;2.20;99.90;;;;;;5086843;28;20035;-80
2022/03/08 01:07:46;;;;;;;9.95;5.53;;;2.20;99.90;;;;;;5105974;28;20082;-80
2022/03/08 01:10:16;;;;;;;7.22;5.60;;;2.90;99.90;;;;;;5120227;28;20078;-80
2022/03/08 01:12:44;;;;;;;12.45;6.10;;;3.20;99.90;;;;;;5116080;28;20054;-80
2022/03/08 01:15:11;;;;;;;7.60;5.57;;;2.00;99.90;;;;;;5105308;28;20031;-80
2022/03/08 01:17:37;;;;;;;9.65;5.80;;;1.90;99.90;;;;;;5103379;28;20031;-80
2022/03/08 01:20:06;;;;;;;9.00;5.90;;;2.00;99.90;;;;;;5095542;28;20039;-80
2022/03/08 01:22:31;;;;;;;9.55;6.18;;;1.90;99.90;;;;;;5099757;28;20076;-81
2022/03/08 01:24:57;;;;;;;7.43;5.53;;;1.80;99.90;;;;;;5115524;28;20043;-80
2022/03/08 01:27:23;;;;;;;9.45;6.03;;;1.80;99.90;;;;;;5125734;28;20046;-80
2022/03/08 01:29:49;;;;;;;9.73;6.20;;;2.90;99.90;;;;;;5100818;28;20052;-80
2022/03/08 01:32:14;;;;;;;11.23;6.32;;;1.70;99.90;;;;;;5118418;28;20031;-79
2022/03/08 01:34:40;;;;;;;8.07;6.10;;;1.60;99.90;;;;;;5103181;28;20486;-80
2022/03/08 01:37:06;;;;;;;10.85;6.60;;;1.60;99.90;;;;;;5115931;27;20273;-80
2022/03/08 01:39:32;;;;;;;9.02;6.07;;;1.70;99.90;;;;;;5104179;27;20047;-80
2022/03/08 01:41:58;;;;;;;9.75;6.50;;;1.50;99.90;;;;;;5124132;27;21675;-80
2022/03/08 01:44:24;;;;;;;9.65;6.60;;;1.50;99.90;;;;;;5124628;27;20073;-80
2022/03/08 01:46:50;;;;;;;11.07;7.10;;;1.50;99.90;;;;;;5113066;27;20031;-80
2022/03/08 01:49:16;;;;;;;9.60;6.70;;;1.50;99.90;;;;;;5096931;28;20035;-80
2022/03/08 01:51:43;;;;;;;10.30;6.47;;;1.50;99.90;;;;;;5108663;27;20051;-79
2022/03/08 01:54:09;;;;;;;11.88;6.55;;;1.50;99.90;;;;;;5127309;27;20043;-79
2022/03/08 01:56:35;;;;;;;8.07;6.25;;;1.60;99.90;;;;;;5125041;27;20027;-80
2022/03/08 01:59:03;;;;;;;10.43;7.03;;;2.70;99.90;;;;;;5105846;27;20065;-81
2022/03/08 02:01:28;;;;;;;10.27;6.53;;;1.40;99.90;;;;;;5118927;27;20045;-80
2022/03/08 02:03:54;;;;;;;11.40;7.38;;;1.40;99.90;;;;;;5116890;27;20048;-80
2022/03/08 02:06:20;;;;;;;9.65;7.13;;;1.40;99.90;;;;;;5131592;27;20050;-81
2022/03/08 02:08:46;;;;;;;12.80;7.13;;;1.50;99.90;;;;;;5095304;27;20036;-81
2022/03/08 02:11:13;;;;;;;10.15;7.35;;;1.40;99.90;;;;;;5114318;27;20031;-81
2022/03/08 02:13:39;;;;;;;11.35;7.20;;;1.40;99.90;;;;;;5123971;27;20073;-81
2022/03/08 02:16:05;;;;;;;12.43;7.10;;;1.50;99.90;;;;;;5096113;28;20494;-81
2022/03/08 02:18:31;;;;;;;10.18;7.13;;;1.50;99.90;;;;;;5083969;28;20118;-80
2022/03/08 02:21:08;;;;;;;10.15;7.25;;;1.50;99.90;;;;;;5101145;27;20035;-80
2022/03/08 02:23:34;;;;;;;12.63;7.55;;;1.50;99.90;;;;;;5119160;27;20043;-80
2022/03/08 02:26:00;;;;;;;11.35;7.50;;;1.50;99.90;;;;;;5111099;27;20039;-80
2022/03/08 02:28:26;;;;;;;10.15;7.25;;;1.50;99.90;;;;;;5117689;27;20114;-80
2022/03/08 02:30:53;;;;;;;11.45;7.85;;;1.50;99.90;;;;;;5118255;27;20439;-80
2022/03/08 02:33:19;;;;;;;11.18;8.02;;;1.40;99.90;;;;;;5109992;27;20046;-80
2022/03/08 02:35:45;;;;;;;11.10;8.13;;;1.40;99.90;;;;;;5106339;27;20406;-80
2022/03/08 02:38:11;;;;;;;11.32;7.95;;;1.40;99.90;;;;;;5123180;27;20046;-80
2022/03/08 02:40:39;;;;;;;11.93;8.13;;;1.40;99.90;;;;;;5115566;27;20043;-80
2022/03/08 02:43:06;;;;;;;12.63;7.60;;;1.30;99.90;;;;;;5125392;27;20110;-80
2022/03/08 02:45:33;;;;;;;14.10;9.00;;;1.30;99.90;;;;;;5124426;27;20031;-80
2022/03/08 02:47:58;;;;;;;12.48;8.00;;;1.30;99.90;;;;;;5103644;28;20046;-80
2022/03/08 02:50:24;;;;;;;11.35;8.20;;;1.30;99.90;;;;;;5125011;27;22019;-81
2022/03/08 02:52:53;;;;;;;14.35;8.40;;;1.20;99.90;;;;;;5102900;27;20039;-81
2022/03/08 02:55:25;;;;;;;12.18;8.70;;;1.20;99.90;;;;;;5127140;27;20491;-79
2022/03/08 02:57:52;;;;;;;11.00;8.18;;;2.20;99.90;;;;;;5122139;27;20135;-80
2022/03/08 03:00:19;;;;;;;15.25;9.20;;;1.20;99.90;;;;;;5117855;27;20406;-80
2022/03/08 03:02:45;;;;;;;11.32;8.40;;;2.30;99.90;;;;;;5114726;27;20043;-80
2022/03/08 03:05:11;;;;;;;12.20;8.48;;;1.20;99.90;;;;;;5127580;27;20039;-80
2022/03/08 03:07:38;;;;;;;17.67;8.55;;;1.20;99.90;;;;;;5117535;27;20106;-80
2022/03/08 03:10:12;;;;;;;12.50;8.75;;;1.20;99.90;;;;;;5106560;28;20185;-80
2022/03/08 03:12:38;;;;;;;12.68;9.40;;;1.20;99.90;;;;;;5120117;27;20069;-80
2022/03/08 03:15:06;;;;;;;14.57;9.02;;;1.10;99.90;;;;;;5108237;27;20502;-80
2022/03/08 03:17:32;;;;;;;12.63;8.90;;;1.10;99.90;;;;;;5122532;27;20043;-80
2022/03/08 03:19:58;;;;;;;13.30;9.27;;;1.10;99.90;;;;;;5107444;27;20042;-80
2022/03/08 03:22:23;;;;;;;13.55;9.55;;;1.10;99.90;;;;;;5088831;27;20414;-80
2022/03/08 03:24:49;;;;;;;15.60;9.63;;;1.10;99.90;;;;;;5098383;27;20042;-80
2022/03/08 03:27:14;;;;;;;16.10;9.60;;;1.00;99.90;;;;;;5110329;27;20538;-80
2022/03/08 03:29:40;;;;;;;12.07;9.43;;;1.00;99.90;;;;;;5127198;27;20478;-80
2022/03/08 03:32:06;;;;;;;15.10;10.32;;;1.00;99.90;;;;;;5122193;27;20604;-80
2022/03/08 03:34:32;;;;;;;15.18;9.88;;;0.90;99.90;;;;;;5124659;27;20031;-80
2022/03/08 03:36:58;;;;;;;14.43;9.95;;;0.90;99.90;;;;;;5105052;27;20027;-79
2022/03/08 03:39:23;;;;;;;15.00;10.03;;;1.00;99.90;;;;;;5100394;27;20124;-80
2022/03/08 03:41:49;;;;;;;12.57;9.80;;;0.80;99.90;;;;;;5129654;27;20042;-80
2022/03/08 03:44:15;;;;;;;14.37;9.80;;;0.80;99.90;;;;;;5099918;27;20283;-80
2022/03/08 03:46:41;;;;;;;16.37;10.50;;;0.80;99.90;;;;;;5104284;27;20269;-80
2022/03/08 03:49:06;;;;;;;13.10;9.77;;;0.80;99.90;;;;;;5126380;27;20302;-81
2022/03/08 03:51:32;;;;;;;13.63;9.55;;;0.80;99.90;;;;;;5108368;27;20466;-81
2022/03/08 03:53:58;;;;;;;13.80;9.80;;;0.80;99.90;;;;;;5107434;27;20114;-80
2022/03/08 03:56:24;;;;;;;14.63;10.13;;;0.80;99.90;;;;;;5085184;27;20039;-79
2022/03/08 03:58:49;;;;;;;15.30;10.07;;;0.80;99.90;;;;;;5123822;27;20042;-80
2022/03/08 04:01:15;;;;;;;14.73;10.40;;;0.80;99.90;;;;;;5105685;27;20038;-80
2022/03/08 04:03:41;;;;;;;15.30;10.15;;;0.80;99.90;;;;;;5112246;27;20102;-80
2022/03/08 04:06:08;;;;;;;13.95;10.18;;;0.80;99.90;;;;;;5121605;27;20040;-80
2022/03/08 04:08:34;;;;;;;16.13;9.93;;;0.80;99.90;;;;;;5090234;27;20043;-80
2022/03/08 04:10:59;;;;;;;14.02;10.02;;;2.20;99.90;;;;;;5127448;27;20506;-80
2022/03/08 04:13:25;;;;;;;15.45;10.00;;;0.80;99.90;;;;;;5108555;27;20035;-79
2022/03/08 04:15:52;;;;;;;14.60;10.38;;;0.80;99.90;;;;;;5121642;27;20111;-79
2022/03/08 04:18:18;;;;;;;14.68;10.40;;;0.80;99.90;;;;;;5104339;27;20053;-79
2022/03/08 04:20:45;;;;;;;14.93;9.85;;;0.80;99.90;;;;;;5118942;27;20075;-80
2022/03/08 04:23:10;;;;;;;17.15;10.43;;;0.80;99.90;;;;;;5129114;27;20401;-79
2022/03/08 04:25:36;;;;;;;16.75;11.10;;;0.70;99.90;;;;;;5121341;27;20109;-80
2022/03/08 04:28:04;;;;;;;16.25;11.23;;;0.70;99.90;;;;;;5113776;28;20119;-80
2022/03/08 04:30:30;;;;;;;15.60;10.77;;;0.70;99.90;;;;;;5128761;27;20110;-80
2022/03/08 04:32:56;;;;;;;18.02;11.57;;;0.70;99.90;;;;;;5126622;27;20033;-79
2022/03/08 04:35:21;;;;;;;13.70;10.27;;;1.90;99.90;;;;;;5113328;27;20487;-79
2022/03/08 04:37:48;;;;;;;17.23;11.47;;;0.70;99.90;;;;;;5105736;27;20036;-80
2022/03/08 04:40:14;;;;;;;16.75;11.13;;;0.70;99.90;;;;;;5101276;28;20346;-80
2022/03/08 04:42:40;;;;;;;17.05;11.13;;;0.60;99.90;;;;;;5096074;27;20035;-79
2022/03/08 04:45:08;;;;;;;17.42;12.05;;;0.70;99.90;;;;;;5118444;27;20439;-79
2022/03/08 04:47:35;;;;;;;17.30;11.10;;;0.60;99.90;;;;;;5115384;27;20104;-79
2022/03/08 04:50:09;;;;;;;18.33;11.55;;;0.60;99.90;;;;;;5117103;28;20055;-79
2022/03/08 04:52:35;;;;;;;18.13;11.57;;;0.60;99.90;;;;;;5093608;28;20035;-79
2022/03/08 04:55:03;;;;;;;;;;;0.60;99.90;;;;;;5093908;28;20115;-79
2022/03/08 04:57:29;;;;;;;20.77;11.38;;;0.60;99.90;;;;;;5110713;28;19927;-80
2022/03/08 04:59:54;;;;;;;17.85;11.73;;;0.60;99.90;;;;;;5110289;28;20035;-80
2022/03/08 05:02:20;;;;;;;17.15;12.25;;;0.60;99.90;;;;;;5110683;28;20056;-80
2022/03/08 05:04:46;;;;;;;16.60;11.32;;;0.50;99.90;;;;;;5093712;28;20043;-81
2022/03/08 05:07:11;;;;;;;21.20;12.50;;;0.50;99.90;;;;;;5093855;28;20110;-80
2022/03/08 05:09:37;;;;;;;22.10;11.98;;;0.50;99.90;;;;;;5093184;28;20050;-80
2022/03/08 05:12:04;;;;;;;19.00;12.35;;;1.40;99.90;;;;;;5112028;28;20111;-80
2022/03/08 05:14:31;;;;;;;17.95;12.13;;;0.50;99.90;;;;;;5114724;28;20092;-80
2022/03/08 05:16:57;;;;;;;22.90;12.45;;;0.50;99.90;;;;;;5110121;28;20032;-79
2022/03/08 05:19:22;;;;;;;19.35;12.65;;;0.50;99.90;;;;;;5081345;28;20510;-80
2022/03/08 05:21:48;;;;;;;19.83;12.10;;;0.50;99.90;;;;;;5097676;28;20032;-78
2022/03/08 05:24:14;;;;;;;18.92;12.70;;;0.50;99.90;;;;;;5097507;28;20277;-78
2022/03/08 05:26:39;;;;;;;18.77;11.87;;;0.50;99.90;;;;;;5097401;28;20550;-79
2022/03/08 05:29:06;;;;;;;19.17;12.23;;;0.50;99.90;;;;;;5114165;28;20035;-80
2022/03/08 05:31:32;;;;;;;19.08;12.70;;;0.50;99.90;;;;;;5096430;28;20027;-79
2022/03/08 05:33:58;;;;;;;20.58;11.90;;;0.50;99.90;;;;;;5096725;28;20094;-83
2022/03/08 05:36:24;;;;;;;20.50;12.73;;;1.90;99.90;;;;;;5113788;28;20082;-84
2022/03/08 05:38:50;;;;;;;20.90;12.45;;;0.50;99.90;;;;;;5079948;28;20050;-83
2022/03/08 05:41:16;;;;;;;18.53;12.40;;;0.90;99.90;;;;;;5113756;28;20040;-82
2022/03/08 05:43:41;;;;;;;20.03;13.03;;;0.50;99.90;;;;;;5113751;28;20482;-82
2022/03/08 05:46:07;;;;;;;19.90;12.52;;;0.50;99.90;;;;;;5113659;28;20302;-81
2022/03/08 05:48:33;;;;;;;19.73;13.02;;;0.50;99.90;;;;;;5113636;28;20075;-83
2022/03/08 05:50:58;;;;;;;20.90;12.88;;;0.40;99.90;;;;;;5099903;28;20134;-81
2022/03/08 05:53:24;;;;;;;21.60;12.52;;;0.40;99.90;;;;;;5097342;27;20035;-80
2022/03/08 05:55:50;;;;;;;22.10;13.23;;;0.40;99.90;;;;;;5109068;27;20616;-82
2022/03/08 05:58:15;;;;;;;20.20;12.73;;;0.60;99.90;;;;;;5109438;27;20110;-80
2022/03/08 06:00:41;;;;;;;20.07;12.63;;;0.40;99.90;;;;;;5123883;27;20046;-81
2022/03/08 06:03:07;;;;;;;18.97;12.47;;;0.80;99.90;;;;;;5106790;27;20274;-81
2022/03/08 06:05:33;;;;;;;21.35;12.23;;;0.40;99.90;;;;;;5125824;27;20035;-80
2022/03/08 06:07:58;;;;;;;21.50;12.77;;;0.40;99.90;;;;;;5107879;27;20394;-80
2022/03/08 06:10:24;;;;;;;21.35;13.38;;;0.40;99.90;;;;;;5128744;27;20054;-80
2022/03/08 06:12:50;;;;;;;22.02;13.18;;;0.40;99.90;;;;;;5121659;27;20106;-80
2022/03/08 06:15:15;;;;;;;20.13;13.63;;;0.40;99.90;;;;;;5124690;27;20087;-80
2022/03/08 06:17:42;;;;;;;22.70;14.40;;;0.40;99.90;;;;;;5105504;27;20039;-80
2022/03/08 06:20:09;;;;;;;20.65;13.63;;;0.40;99.90;;;;;;5108235;27;20550;-80
2022/03/08 06:22:34;;;;;;;19.33;12.63;;;0.40;99.90;;;;;;5124453;27;20035;-80
2022/03/08 06:25:00;;;;;;;23.63;13.55;;;0.50;99.90;;;;;;5088182;27;20044;-79
2022/03/08 06:27:26;;;;;;;18.25;12.25;;;0.50;99.90;;;;;;5123204;27;20039;-80
2022/03/08 06:29:52;;;;;;;23.33;13.35;;;0.50;99.90;;;;;;5123560;27;20088;-80
2022/03/08 06:32:19;;;;;;;21.77;12.90;;;0.50;99.90;;;;;;5103874;27;20031;-80
2022/03/08 06:34:45;;;;;;;20.40;12.63;;;2.30;99.90;;;;;;5120519;27;20046;-80
2022/03/08 06:37:12;;;;;;;21.52;13.23;;;0.60;99.90;;;;;;5089594;27;20028;-80
2022/03/08 06:39:38;;;;;;;21.33;12.85;;;0.60;99.90;;;;;;5123161;27;20036;-80
2022/03/08 06:42:04;;;;;;;24.08;13.07;;;0.70;99.90;;;;;;5125555;27;20042;-81
2022/03/08 06:44:31;;;;;;;21.85;12.35;;;0.70;99.90;;;;;;5103995;27;20032;-80
2022/03/08 06:46:58;;;;;;;23.38;13.02;;;0.80;99.90;;;;;;5105726;27;20035;-80
2022/03/08 06:49:23;;;;;;;21.23;12.45;;;0.80;99.90;;;;;;5122612;27;20034;-80
2022/03/08 06:51:49;;;;;;;20.08;12.35;;;0.90;99.90;;;;;;5114245;27;20593;-81
2022/03/08 06:54:15;;;;;;;20.73;12.07;;;1.00;99.90;;;;;;5112625;28;20063;-80
2022/03/08 06:56:41;;;;;;;22.25;12.18;;;1.10;99.90;;;;;;5112094;28;20038;-80
2022/03/08 06:59:06;;;;;;;18.93;11.93;;;1.30;99.90;;;;;;5095618;28;20462;-81
2022/03/08 07:01:32;;;;;;;19.42;11.52;;;1.40;99.90;;;;;;5095604;28;20291;-81
2022/03/08 07:03:58;;;;;;;19.38;12.50;;;1.40;99.90;;;;;;5111797;28;20039;-80
2022/03/08 07:06:23;;;;;;;19.53;12.00;;;1.50;99.90;;;;;;5112212;28;20469;-80
2022/03/08 07:08:50;;;;;;;18.65;11.20;;;1.70;99.90;;;;;;5095041;28;20335;-80
2022/03/08 07:11:16;;;;;;;19.05;11.70;;;1.90;99.90;;;;;;5111762;28;20040;-80
2022/03/08 07:13:42;;;;;;;21.50;11.25;;;2.00;99.90;;;;;;5095062;28;20040;-80
2022/03/08 07:16:08;;;;;;;17.85;10.70;;;3.80;99.90;;;;;;5094939;28;20100;-80
2022/03/08 07:18:34;;;;;;;20.27;11.32;;;2.30;99.90;;;;;;5112325;28;20456;-81
2022/03/08 07:21:02;;;;;;;18.60;11.20;;;2.40;99.90;;;;;;5094753;28;20118;-81
2022/03/08 07:23:27;;;;;;;18.00;11.65;;;2.50;99.90;;;;;;5107044;28;20047;-81
2022/03/08 07:25:53;;;;;;;19.05;11.07;;;2.50;99.90;;;;;;5077465;28;20402;-80
2022/03/08 07:28:19;;;;;;;16.73;10.52;;;2.70;99.90;;;;;;5095079;28;20395;-81
2022/03/08 07:30:44;;;;;;;18.85;11.43;;;2.80;99.90;;;;;;5077245;28;20036;-80
2022/03/08 07:33:10;;;;;;;17.43;10.33;;;2.80;99.90;;;;;;5094581;28;20031;-81
2022/03/08 07:35:36;;;;;;;19.17;10.97;;;3.00;99.90;;;;;;5093981;28;20273;-81
2022/03/08 07:38:02;;;;;;;18.55;10.68;;;3.10;99.90;;;;;;5094032;28;20890;-80
2022/03/08 07:40:28;;;;;;;17.50;9.48;;;3.30;99.90;;;;;;5111503;28;20557;-80
2022/03/08 07:42:53;;;;;;;15.63;9.70;;;3.50;99.90;;;;;;5094537;28;20497;-80
2022/03/08 07:45:19;;;;;;;18.17;9.90;;;4.00;99.90;;;;;;5094493;28;20088;-80
2022/03/08 07:47:45;;;;;;;15.47;8.63;;;3.70;99.90;;;;;;5111302;28;20040;-81
2022/03/08 07:50:11;;;;;;;14.25;9.00;;;3.90;99.90;;;;;;5095399;27;20042;-81
2022/03/08 07:52:38;;;;;;;17.38;9.57;;;4.50;99.90;;;;;;5127475;27;20130;-81
2022/03/08 07:55:05;;;;;;;13.13;7.82;;;4.20;99.90;;;;;;5122684;27;20039;-81
2022/03/08 07:57:31;;;;;;;15.00;8.77;;;4.40;99.90;;;;;;5108093;27;20046;-81
2022/03/08 07:59:57;;;;;;;14.60;8.45;;;5.00;99.90;;;;;;5107469;27;20039;-81
2022/03/08 08:02:22;;;;;;;15.27;8.40;;;6.60;99.90;;;;;;5125021;27;20494;-81
2022/03/08 08:04:48;;;;;;;13.60;8.37;;;6.40;99.90;;;;;;5125945;27;20283;-81
2022/03/08 08:07:14;;;;;;;15.48;9.23;;;6.90;99.90;;;;;;5124023;27;20042;-82
2022/03/08 08:09:40;;;;;;;13.30;8.43;;;7.30;99.90;;;;;;5107802;27;20387;-82
2022/03/08 08:12:07;;;;;;;14.32;8.63;;;7.70;99.90;;;;;;5124357;27;20114;-82
2022/03/08 08:14:33;;;;;;;12.50;8.20;;;7.80;99.90;;;;;;5108631;27;20054;-82
2022/03/08 08:16:59;;;;;;;12.63;7.90;;;8.30;99.90;;;;;;5123755;27;20039;-81
2022/03/08 08:19:24;;;;;;;14.13;8.27;;;8.30;99.90;;;;;;5086860;28;20035;-81
2022/03/08 08:21:50;;;;;;;11.80;8.10;;;8.60;99.90;;;;;;5102916;27;20039;-80
2022/03/08 08:24:16;;;;;;;11.02;7.93;;;9.10;99.90;;;;;;5121220;27;20292;-80
2022/03/08 08:26:41;;;;;;;12.85;8.07;;;9.60;99.90;;;;;;5125522;27;20039;-81
2022/03/08 08:29:07;;;;;;;12.80;8.27;;;9.80;99.90;;;;;;5089369;27;20038;-81
2022/03/08 08:31:33;;;;;;;12.57;7.75;;;9.80;99.90;;;;;;5106048;27;20091;-80
2022/03/08 08:33:59;;;;;;;12.10;7.82;;;9.90;99.30;;;;;;5122406;27;20070;-80
2022/03/08 08:36:24;;;;;;;12.75;7.20;;;10.30;99.90;;;;;;5122943;27;20042;-81
2022/03/08 08:38:50;;;;;;;10.27;6.95;;;10.40;99.90;;;;;;5123661;27;20034;-81
2022/03/08 08:41:16;;;;;;;11.63;6.80;;;10.30;98.80;;;;;;5073091;27;20087;-81
2022/03/08 08:43:41;;;;;;;12.60;7.75;;;10.20;98.20;;;;;;5106977;27;20461;-81
2022/03/08 08:46:07;;;;;;;10.90;7.05;;;10.50;98.20;;;;;;5108519;27;20031;-80
2022/03/08 08:48:33;;;;;;;10.85;7.10;;;11.00;99.30;;;;;;5123663;27;20386;-81
2022/03/08 08:50:58;;;;;;;10.77;7.35;;;11.60;95.80;;;;;;5123741;27;20050;-81
2022/03/08 08:53:24;;;;;;;10.48;7.65;;;11.80;96.00;;;;;;5106030;27;20409;-81
2022/03/08 08:55:50;;;;;;;10.80;6.70;;;12.00;96.20;;;;;;5089491;27;20064;-81
2022/03/08 08:58:16;;;;;;;10.75;7.35;;;12.10;94.40;;;;;;5123994;27;20039;-81
2022/03/08 09:00:42;;;;;;;11.52;7.88;;;12.10;92.80;;;;;;5106287;27;20122;-82
2022/03/08 09:03:10;;;;;;;8.70;7.15;;;12.30;93.30;;;;;;5089241;27;20083;-82
2022/03/08 09:05:36;;;;;;;11.27;7.25;;;12.60;91.30;;;;;;5107137;27;20591;-81
2022/03/08 09:08:03;;;;;;;;;;;12.20;92.80;;;;;;5107796;27;20043;-81
2022/03/08 09:10:28;;;;;;;9.65;7.35;;;12.10;91.90;;;;;;5124123;27;19927;-80
2022/03/08 09:12:54;;;;;;;8.90;6.47;;;12.40;92.00;;;;;;5089518;27;20039;-81
2022/03/08 09:15:21;;;;;;;9.00;6.97;;;12.50;90.80;;;;;;5124839;27;20047;-80
2022/03/08 09:17:47;;;;;;;8.85;6.88;;;13.00;91.50;;;;;;5122024;27;20488;-80
2022/03/08 09:20:13;;;;;;;10.25;6.80;;;13.50;89.00;;;;;;5123876;27;20073;-80
2022/03/08 09:22:39;;;;;;;9.70;7.03;;;13.60;86.40;;;;;;5109707;27;20081;-81
2022/03/08 09:25:06;;;;;;;8.95;6.95;;;13.40;86.80;;;;;;5106523;27;20401;-81
2022/03/08 09:27:34;;;;;;;10.20;7.63;;;13.80;90.20;;;;;;5109610;27;20070;-82
2022/03/08 09:30:01;;;;;;;9.30;6.70;;;13.70;87.70;;;;;;5122003;27;20031;-81
2022/03/08 09:32:26;;;;;;;10.45;7.05;;;14.00;84.90;;;;;;5125243;27;20122;-81
2022/03/08 09:34:52;;;;;;;8.80;6.72;;;13.80;86.90;;;;;;5106549;27;20114;-81
2022/03/08 09:37:18;;;;;;;10.10;6.63;;;14.20;83.20;;;;;;5106157;27;20035;-82
2022/03/08 09:39:44;;;;;;;9.70;6.78;;;14.00;83.10;;;;;;5122770;27;20502;-82
2022/03/08 09:42:10;;;;;;;8.40;6.20;;;14.20;83.20;;;;;;5091777;27;20394;-80
2022/03/08 09:44:36;;;;;;;7.95;6.07;;;14.50;79.90;;;;;;5123182;27;20035;-82
2022/03/08 09:47:02;;;;;;;;;;;14.90;77.50;;;;;;5123102;27;20083;-81
2022/03/08 09:49:28;;;;;;;9.85;5.97;;;14.70;76.20;;;;;;5108681;27;20211;-81
2022/03/08 09:51:54;;;;;;;6.50;5.47;;;14.90;76.40;;;;;;5122457;27;20084;-81
2022/03/08 09:54:20;;;;;;;12.75;5.55;;;15.10;74.80;;;;;;5124687;27;20043;-81
2022/03/08 09:56:46;;;;;;;8.68;5.68;;;15.00;75.70;;;;;;5123901;27;20027;-82
2022/03/08 09:59:19;;;;;;;8.10;5.68;;;15.40;76.70;;;;;;5126064;27;20062;-81
2022/03/08 10:01:47;;;;;;;7.13;5.28;;;15.30;72.60;;;;;;5109700;27;20114;-81
2022/03/08 10:04:17;;;;;;;7.30;5.20;;;15.20;72.90;;;;;;5109383;27;20043;-82
2022/03/08 10:06:44;;;;;;;7.20;5.60;;;15.80;71.60;;;;;;5129031;27;20375;-82
2022/03/08 10:09:12;;;;;;;8.23;5.70;;;16.00;72.50;;;;;;5126717;27;20104;-82
2022/03/08 10:11:38;;;;;;;7.47;4.80;;;16.30;71.40;;;;;;5113746;27;20038;-82
2022/03/08 10:14:04;;;;;;;8.65;5.15;;;16.00;70.10;;;;;;5094726;27;20034;-82
2022/03/08 10:16:41;;;;;;;7.65;5.50;;;16.10;69.10;;;;;;5109457;27;20095;-82
2022/03/08 10:19:09;;;;;;;6.80;4.75;;;16.30;68.30;;;;;;5109006;27;20038;-82
2022/03/08 10:21:40;;;;;;;7.45;4.93;;;16.00;67.30;;;;;;5125387;27;20492;-82
2022/03/08 10:24:13;;;;;;;5.90;4.40;;;16.30;69.40;;;;;;5109737;27;20106;-82
2022/03/08 10:26:51;;;;;;;5.25;4.00;;;16.20;65.10;;;;;;5126956;27;20039;-82
2022/03/08 10:29:36;;;;;;;6.57;4.57;;;16.60;64.80;;;;;;5125074;27;20071;-83
2022/03/08 10:32:07;;;;;;;7.15;4.05;;;17.00;65.80;;;;;;5125791;27;20481;-81
2022/03/08 10:34:34;;;;;;;7.60;4.80;;;16.90;65.30;;;;;;5126389;27;20039;-82
2022/03/08 10:37:03;;;;;;;6.03;4.30;;;17.20;62.90;;;;;;5108893;27;20076;-82
2022/03/08 10:39:29;;;;;;;6.00;4.75;;;17.10;63.60;;;;;;5129351;27;20035;-82
2022/03/08 10:41:57;;;;;;;6.25;4.80;;;17.50;63.60;;;;;;5092330;27;20508;-82
2022/03/08 10:44:41;;;;;;;6.78;4.50;;;17.40;61.80;;;;;;5124287;27;20375;-83
2022/03/08 10:47:14;;;;;;;5.63;4.35;;;17.30;60.80;;;;;;5125413;27;20046;-82
2022/03/08 10:49:55;;;;;;;6.68;4.20;;;17.10;61.70;;;;;;5124171;27;20118;-82
2022/03/08 10:52:36;;;;;;;6.85;4.65;;;17.50;61.30;;;;;;5125898;27;20082;-82
2022/03/08 10:55:09;;;;;;;6.10;4.05;;;17.60;61.20;;;;;;5105644;27;20039;-82
2022/03/08 10:57:36;;;;;;;5.90;4.60;;;17.60;59.90;;;;;;5104955;27;20045;-82
2022/03/08 11:00:09;;;;;;;6.90;4.15;;;17.70;60.70;;;;;;5091948;27;20121;-82
2022/03/08 11:02:35;;;;;;;6.93;3.97;;;17.40;60.60;;;;;;5122210;27;20047;-82
2022/03/08 11:05:09;;;;;;;4.88;4.00;;;17.50;61.00;;;;;;5125675;27;20036;-82
2022/03/08 11:07:38;;;;;;;5.70;4.28;;;17.90;60.50;;;;;;5123875;27;20443;-82
2022/03/08 11:10:09;;;;;;;5.78;4.28;;;17.90;61.10;;;;;;5125100;27;20074;-82
2022/03/08 11:12:36;;;;;;;6.28;4.30;;;18.50;60.50;;;;;;5125923;27;20031;-82
2022/03/08 11:15:02;;;;;;;6.55;3.97;;;18.50;60.00;;;;;;5109000;27;20487;-82
2022/03/08 11:17:29;;;;;;;5.35;4.57;;;18.70;58.90;;;;;;5106912;27;20031;-82
2022/03/08 11:19:56;;;;;;;;;;;18.80;58.90;;;;;;5126212;27;20035;-82
2022/03/08 11:22:22;;;;;;;6.00;4.43;;;19.30;59.00;;;;;;5123517;27;20321;-81
2022/03/08 11:24:50;;;;;;;5.85;4.07;;;18.60;58.10;;;;;;5105314;27;20046;-82
2022/03/08 11:27:16;;;;;;;6.13;4.18;;;18.20;58.90;;;;;;5124465;27;20073;-82
2022/03/08 11:29:43;;;;;;;6.30;4.10;;;18.50;58.80;;;;;;5107180;27;20038;-82
2022/03/08 11:32:45;;;;;;;4.75;3.80;;;18.30;58.80;;;;;;5105397;27;20031;-82
2022/03/08 11:35:16;;;;;;;5.35;4.03;;;18.00;58.10;;;;;;5104571;27;20042;-83
2022/03/08 11:37:46;;;;;;;6.72;4.28;;;18.50;58.70;;;;;;5122363;27;20030;-83
2022/03/08 11:40:18;;;;;;;5.97;4.05;;;18.30;59.00;;;;;;5124518;27;20085;-83
2022/03/08 11:42:46;;;;;;;5.78;3.75;;;18.60;58.60;;;;;;5105697;27;20031;-84
2022/03/08 11:45:23;;;;;;;5.57;4.20;;;18.70;58.00;;;;;;5126495;27;20066;-84
2022/03/08 11:47:57;;;;;;;6.22;4.22;;;18.60;58.70;;;;;;5123518;27;20117;-83
2022/03/08 11:50:24;;;;;;;4.65;3.90;;;18.40;59.10;;;;;;5123069;27;20091;-84
2022/03/08 11:53:12;;;;;;;6.03;4.28;;;18.30;58.20;;;;;;5109987;27;20054;-83
2022/03/08 11:55:43;;;;;;;4.43;3.67;;;18.00;57.90;;;;;;5124636;27;20043;-83
2022/03/08 11:58:13;;;;;;;4.57;3.80;;;18.50;58.10;;;;;;5124379;27;20065;-83
2022/03/08 12:00:42;;;;;;;5.43;4.10;;;18.40;58.80;;;;;;5107892;27;20485;-83
2022/03/08 12:03:14;;;;;;;5.10;3.85;;;17.70;59.60;;;;;;5107227;27;20478;-84
2022/03/08 12:05:59;;;;;;;4.60;3.45;;;17.80;58.60;;;;;;5123504;27;20027;-84
2022/03/08 12:08:27;;;;;;;5.30;3.67;;;17.90;59.30;;;;;;5119462;27;20118;-83
2022/03/08 12:11:01;;;;;;;5.40;3.60;;;17.50;60.00;;;;;;5123272;27;20118;-83
2022/03/08 12:13:37;;;;;;;5.95;3.60;;;18.10;58.90;;;;;;5122382;27;20043;-83
2022/03/08 12:16:09;;;;;;;;;;;17.70;58.90;;;;;;5107507;27;20553;-83
2022/03/08 12:18:35;;;;;;;5.28;3.70;;;18.30;58.40;;;;;;5126845;27;19919;-84
2022/03/08 12:21:29;;;;;;;4.72;3.67;;;18.60;58.60;;;;;;5125436;27;20041;-84
2022/03/08 12:23:55;;;;;;;4.25;3.60;;;18.90;58.00;;;;;;5122195;27;20227;-84
2022/03/08 12:26:29;;;;;;;5.95;3.28;;;18.80;57.40;;;;;;5124021;27;20574;-84
2022/03/08 12:29:15;;;;;;;6.07;3.30;;;19.00;58.10;;;;;;5107211;27;20037;-85
2022/03/08 12:31:56;;;;;;;5.05;2.85;;;19.00;57.80;;;;;;5105078;27;20397;-84
2022/03/08 12:34:39;;;;;;;4.13;3.10;;;19.70;57.00;;;;;;5102199;27;20170;-84
2022/03/08 12:37:11;;;;;;;4.60;2.85;;;18.80;56.40;;;;;;5107896;27;20035;-84
2022/03/08 12:40:01;;;;;;;6.00;2.80;;;18.60;57.60;;;;;;5125244;27;20031;-84
2022/03/08 12:42:35;;;;;;;4.13;2.90;;;18.70;57.10;;;;;;5117229;27;20031;-85
2022/03/08 12:45:04;;;;;;;4.90;3.10;;;18.60;56.60;;;;;;5121128;27;20061;-84
2022/03/08 12:47:34;;;;;;;5.15;2.97;;;18.40;57.20;;;;;;5103321;27;20106;-84